• Join FlightAware (Why Join?)
  • Login
  • US Flag 
12:17AM EST


 

Airport Tracker/Info


-or-


 

Live Flight TrackerFlight Track Log ✈ TAM3904 ✈ 18-Nov-2013 ✈ SBSP / CGH - SBRJ / SDU

Flight Track Log - Related Links

Times and Time Zones

All times are in EST time to prevent confusion due to time zone crossing. See the TAM3904 flight status page for this flight to view local times or setup timezone preferences in your user account.

Time Position Orientation Groundspeed Altitude Reporting Facility
EST Latitude Longitude Course Direction KTS MPH feet Rate Location/Type
04:23AM -23.5350 -46.1838 78° East  Level Estimated
04:24AM -23.5217 -46.1165 78° East  Level Estimated
04:25AM -23.5008 -46.0105 78° East  Level Estimated
04:26AM -23.4799 -45.9045 78° East  Level Estimated
04:27AM -23.4588 -45.7985 78° East  Level Estimated
04:28AM -23.4377 -45.6926 78° East  Level Estimated
04:29AM -23.4165 -45.5867 78° East  Level Estimated
04:30AM -23.3953 -45.4808 78° East  Level Estimated
04:31AM -23.3740 -45.3750 78° East  Level Estimated
04:32AM -23.3526 -45.2692 78° East  Level Estimated
04:33AM -23.3311 -45.1634 78° East  Level Estimated
04:34AM -23.3096 -45.0577 78° East  Level Estimated
04:35AM -23.2880 -44.9520 77° East  Level Estimated
04:36AM -23.2663 -44.8464 77° East  Level Estimated
04:37AM -23.2445 -44.7407 77° East  Level Estimated
04:38AM -23.2227 -44.6351 77° East  Level Estimated
04:39AM -23.2008 -44.5296 77° East  Level Estimated
04:40AM -23.1789 -44.4241 77° East  Level Estimated
04:41AM -23.1568 -44.3186 77° East  Level Estimated
04:42AM -23.1347 -44.2131 77° East  Level Estimated
04:43AM -23.1126 -44.1077 77° East  Level Estimated
04:44AM -23.0903 -44.0023 77° East  Level Estimated
04:45AM -23.0680 -43.8970 77° East  Level Estimated
04:46AM -23.0456 -43.7917 77° East  Level Estimated
04:47AM -23.0232 -43.6864 77° East  Level Estimated
04:48AM -23.0007 -43.5811 77° East  Level Estimated
04:49AM -22.9781 -43.4759 77° East  Level Estimated
04:50AM -22.9554 -43.3708 77° East  Level Estimated
04:51AM -22.9327 -43.2656 77° East  Level Estimated
04:52AM -22.9105 -43.1631 77° East  Level Estimated
04:53AM -22.9105 -43.1631 250° West  Level Estimated
04:54AM -22.9105 -43.1631 250° West  Level Estimated
04:55AM -22.9105 -43.1631 250° West  Level Estimated
04:56AM -22.9105 -43.1631 250° West  Level Estimated
04:57AM -22.9105 -43.1631 250° West  Level Estimated
04:58AM -22.9105 -43.1631 250° West  Level Estimated
04:59AM -22.9105 -43.1631 250° West  Level Estimated
05:00AM -22.9105 -43.1631 250° West  Level Estimated
05:01AM -22.9105 -43.1631 250° West  Level Estimated
05:02AM -22.9105 -43.1631 250° West  Level Estimated
05:03AM -22.9105 -43.1631 250° West  Level Estimated
05:04AM -22.9105 -43.1631 250° West  Level Estimated
05:05AM -22.9105 -43.1631 250° West  Level Estimated